Covington, Texas
Current Conditions -  °F | °C
As of 4:15 AM on Friday 31 Oct 2014 (Local Time) from KINJ Reporting Station
Clear Clear  
Wind Chill: 56°   Ceiling: Unl
Heat Index: 56°   Visibility: 10mi
Dew Point: 47°   Wind: 9mph
Humidity: 73%   Direction: 340°NNW
Pressure: 30.19"   Gusts: NA
Location:  32.18°N, 97.26°W
Report Text: KINJ 310915Z AUTO 34008KT 10SM CLR 13/08 A3019 RMK AO2 T01310084
Loading
Personal Weather Stations






























Interactive Weather Map
Tropical Storm Tracking
New forecast layout! Learn more

10-Day Weather Forecast

Advertisements
Track Severe Weather on mobile